createdAt,value
2023-08-27T00:01:00.624Z,11.90
2023-08-27T00:06:05.906Z,10.88
2023-08-27T00:11:13.747Z,11.25
2023-08-27T00:16:19.198Z,11.23
2023-08-27T00:21:24.474Z,11.13
2023-08-27T00:26:32.253Z,11.63
2023-08-27T00:31:37.467Z,12.93
2023-08-27T00:36:42.706Z,11.18
2023-08-27T00:41:50.734Z,11.98
2023-08-27T00:46:56.115Z,12.07
2023-08-27T00:52:01.691Z,10.68
2023-08-27T00:57:10.416Z,11.90
2023-08-27T01:02:16.631Z,12.30
2023-08-27T01:07:30.615Z,11.80
2023-08-27T01:12:45.504Z,13.60
2023-08-27T01:17:51.221Z,13.10
2023-08-27T01:22:59.392Z,12.85
2023-08-27T01:28:12.444Z,12.20
2023-08-27T01:33:20.379Z,12.70
2023-08-27T01:38:28.502Z,11.98
2023-08-27T01:43:33.853Z,12.35
2023-08-27T01:48:39.764Z,13.32
2023-08-27T01:53:47.591Z,12.57
2023-08-27T01:58:53.060Z,11.93
2023-08-27T02:03:58.435Z,14.35
2023-08-27T02:09:07.674Z,12.13
2023-08-27T02:14:12.896Z,13.73
2023-08-27T02:19:18.080Z,13.70
2023-08-27T02:24:26.067Z,12.93
2023-08-27T02:29:31.380Z,13.20
2023-08-27T02:34:36.714Z,12.63
2023-08-27T02:39:44.607Z,13.63
2023-08-27T02:44:49.911Z,11.80
2023-08-27T02:49:55.328Z,12.48
2023-08-27T02:55:03.298Z,11.40
2023-08-27T03:00:09.926Z,12.32
2023-08-27T03:05:15.268Z,11.60
2023-08-27T03:10:23.950Z,10.88
2023-08-27T03:15:29.389Z,12.18
2023-08-27T03:20:34.840Z,11.82
2023-08-27T03:25:42.865Z,12.15
2023-08-27T03:30:48.128Z,15.10
2023-08-27T03:35:59.391Z,14.95
2023-08-27T03:41:07.215Z,16.67
2023-08-27T03:46:12.482Z,13.70
2023-08-27T03:51:17.689Z,14.23
2023-08-27T03:56:25.462Z,14.43
2023-08-27T04:01:30.915Z,14.82
2023-08-27T04:06:36.400Z,14.65
2023-08-27T04:11:44.772Z,13.38
2023-08-27T04:16:50.150Z,14.03
2023-08-27T04:21:55.541Z,14.13
2023-08-27T04:27:03.342Z,13.32
2023-08-27T04:32:09.204Z,12.75
2023-08-27T04:37:14.365Z,13.15
2023-08-27T04:42:22.109Z,13.88
2023-08-27T04:47:27.289Z,14.95
2023-08-27T04:52:32.989Z,13.07
2023-08-27T04:57:41.633Z,12.75
2023-08-27T05:02:46.765Z,13.57
2023-08-27T05:07:51.905Z,12.35
2023-08-27T05:12:59.686Z,12.13
2023-08-27T05:18:06.468Z,13.13
2023-08-27T05:23:11.839Z,12.82
2023-08-27T05:28:19.713Z,12.02
2023-08-27T05:33:25.472Z,12.25
2023-08-27T05:38:31.065Z,11.98
2023-08-27T05:43:39.537Z,10.82
2023-08-27T05:48:45.088Z,10.38
2023-08-27T05:53:50.305Z,11.32
2023-08-27T05:58:59.392Z,9.68
2023-08-27T06:04:04.525Z,10.52
2023-08-27T06:09:09.712Z,8.98
2023-08-27T06:14:17.606Z,9.02
2023-08-27T06:19:23.422Z,9.60
2023-08-27T06:24:29.645Z,8.77
2023-08-27T06:29:37.491Z,8.63
2023-08-27T06:34:42.733Z,8.50
2023-08-27T06:39:47.863Z,8.27
2023-08-27T06:44:55.575Z,8.35
2023-08-27T06:55:05.930Z,7.68
2023-08-27T07:00:14.730Z,7.82
2023-08-27T07:05:21.120Z,7.80
2023-08-27T07:10:26.263Z,8.15
2023-08-27T07:15:34.013Z,8.05
2023-08-27T07:20:39.098Z,7.03
2023-08-27T07:25:44.266Z,7.32
2023-08-27T07:30:52.574Z,7.63
2023-08-27T07:35:57.717Z,7.72
2023-08-27T07:41:02.779Z,7.20
2023-08-27T07:46:10.718Z,8.00
2023-08-27T07:51:15.902Z,7.78
2023-08-27T07:56:20.993Z,7.40
2023-08-27T08:01:29.423Z,8.82
2023-08-27T08:06:34.550Z,8.55
2023-08-27T08:11:39.663Z,9.45
2023-08-27T08:16:49.013Z,10.88
2023-08-27T08:21:54.230Z,10.00
2023-08-27T08:26:59.417Z,10.50
2023-08-27T08:32:07.762Z,7.55
2023-08-27T08:37:12.902Z,7.43
2023-08-27T08:42:24.839Z,8.15
2023-08-27T08:47:32.739Z,7.90
2023-08-27T08:52:40.775Z,8.55
2023-08-27T08:57:49.946Z,8.05
2023-08-27T09:02:57.771Z,8.10
2023-08-27T09:08:03.070Z,7.55
2023-08-27T09:13:09.244Z,7.88
2023-08-27T09:18:17.086Z,6.72
2023-08-27T09:23:22.297Z,9.40
2023-08-27T09:28:28.091Z,8.48
2023-08-27T09:33:46.066Z,8.43
2023-08-27T09:38:51.273Z,8.25
2023-08-27T09:43:57.567Z,8.27
2023-08-27T09:49:07.864Z,8.48
2023-08-27T09:54:21.050Z,8.10
2023-08-27T09:59:26.173Z,7.40
2023-08-27T10:04:33.899Z,8.07
2023-08-27T10:09:39.098Z,7.95
2023-08-27T10:14:44.228Z,8.55
2023-08-27T10:19:52.172Z,8.10
2023-08-27T10:24:57.463Z,7.50
2023-08-27T10:30:04.484Z,7.88
2023-08-27T10:35:13.543Z,9.07
2023-08-27T10:40:18.933Z,7.57
2023-08-27T10:45:25.645Z,8.50
2023-08-27T10:50:46.455Z,8.45
2023-08-27T10:55:55.384Z,9.65
2023-08-27T11:01:08.077Z,10.30
2023-08-27T11:06:19.380Z,10.52
2023-08-27T11:11:28.511Z,9.65
2023-08-27T11:16:34.044Z,9.40
2023-08-27T11:21:49.983Z,12.47
2023-08-27T11:26:57.415Z,11.30
2023-08-27T11:32:05.917Z,8.88
2023-08-27T11:37:16.580Z,7.97
2023-08-27T11:42:23.609Z,8.90
2023-08-27T11:47:28.892Z,8.63
2023-08-27T11:52:39.719Z,8.55
2023-08-27T11:57:45.450Z,7.43
2023-08-27T12:02:50.716Z,8.40
2023-08-27T12:07:59.136Z,7.93
2023-08-27T12:13:04.408Z,7.95
2023-08-27T12:18:11.290Z,7.63
2023-08-27T12:23:19.421Z,7.68
2023-08-27T12:28:25.163Z,7.65
2023-08-27T12:33:42.843Z,7.53
2023-08-27T12:38:50.724Z,7.07
2023-08-27T12:43:56.969Z,7.13
2023-08-27T12:49:02.076Z,7.15
2023-08-27T12:54:11.252Z,6.65
2023-08-27T12:59:17.125Z,6.13
2023-08-27T13:04:24.350Z,6.50
2023-08-27T13:09:32.302Z,6.93
2023-08-27T13:14:37.610Z,6.88
2023-08-27T13:19:42.721Z,6.78
2023-08-27T13:24:50.972Z,6.63
2023-08-27T13:29:56.086Z,7.15
2023-08-27T13:35:01.274Z,6.70
2023-08-27T13:40:11.160Z,6.25
2023-08-27T13:45:16.218Z,7.03
2023-08-27T13:50:22.259Z,6.57
2023-08-27T13:55:30.083Z,6.95
2023-08-27T14:00:36.501Z,6.32
2023-08-27T14:05:41.735Z,6.47
2023-08-27T14:10:49.428Z,6.40
2023-08-27T14:15:55.834Z,6.05
2023-08-27T14:21:01.081Z,7.00
2023-08-27T14:26:08.899Z,6.78
2023-08-27T14:31:14.128Z,6.70
2023-08-27T14:36:19.260Z,6.50
2023-08-27T14:41:27.251Z,6.07
2023-08-27T14:46:33.969Z,6.43
2023-08-27T14:51:41.004Z,7.47
2023-08-27T14:56:49.133Z,6.57
2023-08-27T15:01:57.653Z,6.38
2023-08-27T15:07:05.623Z,8.93
2023-08-27T15:12:21.915Z,6.80
2023-08-27T15:17:27.330Z,6.78
2023-08-27T15:22:32.880Z,6.47
2023-08-27T15:27:40.970Z,6.68
2023-08-27T15:32:50.103Z,6.88
2023-08-27T15:37:55.398Z,6.55
2023-08-27T15:43:43.526Z,7.20
2023-08-27T15:49:03.694Z,6.22
2023-08-27T15:54:09.510Z,7.90
2023-08-27T15:59:20.563Z,6.60
2023-08-27T16:04:29.037Z,6.43
2023-08-27T16:09:34.474Z,5.68
2023-08-27T16:14:42.436Z,7.15
2023-08-27T16:19:47.775Z,6.00
2023-08-27T16:24:53.250Z,6.63
2023-08-27T16:30:01.195Z,6.47
2023-08-27T16:35:06.581Z,6.32
2023-08-27T16:40:13.995Z,6.43
2023-08-27T16:45:21.949Z,7.03
2023-08-27T16:50:27.331Z,11.02
2023-08-27T16:55:33.457Z,5.97
2023-08-27T17:00:41.547Z,7.32
2023-08-27T17:05:47.000Z,6.88
2023-08-27T17:10:52.842Z,7.18
2023-08-27T17:16:01.997Z,7.00
2023-08-27T17:21:07.590Z,7.70
2023-08-27T17:26:12.940Z,8.20
2023-08-27T17:31:21.172Z,9.30
2023-08-27T17:36:26.679Z,10.90
2023-08-27T17:41:34.398Z,11.05
2023-08-27T17:46:42.409Z,9.63
2023-08-27T17:56:53.165Z,8.77
2023-08-27T18:02:01.124Z,8.13
2023-08-27T18:07:06.416Z,8.43
2023-08-27T18:12:12.400Z,8.07
2023-08-27T18:17:20.462Z,7.28
2023-08-27T18:22:25.809Z,8.05
2023-08-27T18:27:31.124Z,7.78
2023-08-27T18:32:39.193Z,7.50
2023-08-27T18:37:44.685Z,8.70
2023-08-27T18:42:50.134Z,8.35
2023-08-27T18:47:58.076Z,7.32
2023-08-27T18:53:07.757Z,7.97
2023-08-27T18:58:13.332Z,7.90
2023-08-27T19:03:21.549Z,9.25
2023-08-27T19:08:26.925Z,9.70
2023-08-27T19:13:32.435Z,8.00
2023-08-27T19:18:41.345Z,7.72
2023-08-27T19:23:46.793Z,8.75
2023-08-27T19:28:52.113Z,7.90
2023-08-27T19:34:00.042Z,7.35
2023-08-27T19:39:06.601Z,7.40
2023-08-27T19:44:12.183Z,7.88
2023-08-27T19:49:20.281Z,7.45
2023-08-27T19:54:26.268Z,7.82
2023-08-27T19:59:31.671Z,7.82
2023-08-27T20:04:41.289Z,7.40
2023-08-27T20:09:46.638Z,7.10
2023-08-27T20:14:52.216Z,6.90
2023-08-27T20:20:00.600Z,7.35
2023-08-27T20:25:06.452Z,6.78
2023-08-27T20:30:13.221Z,8.13
2023-08-27T20:35:23.750Z,6.57
2023-08-27T20:40:29.160Z,6.57
2023-08-27T20:45:36.462Z,6.63
2023-08-27T20:50:48.292Z,7.32
2023-08-27T20:55:53.696Z,7.38
2023-08-27T21:00:59.160Z,7.05
2023-08-27T21:06:10.757Z,8.75
2023-08-27T21:11:16.047Z,8.45
2023-08-27T21:16:21.378Z,9.25
2023-08-27T21:21:29.564Z,8.30
2023-08-27T21:26:34.848Z,8.93
2023-08-27T21:31:53.599Z,12.77
2023-08-27T21:37:02.665Z,9.48
2023-08-27T21:42:08.355Z,12.60
2023-08-27T21:47:13.646Z,9.15
2023-08-27T21:52:21.582Z,14.55
2023-08-27T21:57:26.928Z,13.97
2023-08-27T22:02:32.466Z,10.25
2023-08-27T22:07:40.505Z,8.82
2023-08-27T22:12:46.104Z,9.17
2023-08-27T22:17:51.850Z,9.32
2023-08-27T22:23:01.248Z,8.75
2023-08-27T22:28:07.034Z,9.57
2023-08-27T22:33:12.476Z,9.55
2023-08-27T22:38:20.383Z,9.98
2023-08-27T22:43:25.687Z,9.25
2023-08-27T22:48:31.057Z,9.30
2023-08-27T22:53:38.976Z,9.52
2023-08-27T22:58:44.222Z,10.68
2023-08-27T23:03:49.603Z,8.52
2023-08-27T23:08:57.421Z,12.82
2023-08-27T23:14:02.602Z,9.05
2023-08-27T23:19:08.601Z,8.90
2023-08-27T23:24:17.321Z,8.30
2023-08-27T23:29:22.551Z,8.70
2023-08-27T23:34:27.904Z,8.27
2023-08-27T23:39:38.558Z,8.73
2023-08-27T23:44:55.820Z,9.50
2023-08-27T23:50:05.848Z,15.27
2023-08-27T23:55:13.997Z,11.40
